x

Tanner Bank - 121nm West Of San Diego, Ca (46047) Wave Buoy

3:50am - Wed 20th Aug 2014 All times are PDT. -7 hours from GMT.

  • Sig Wave height 4.3ft
  • Swell Direction
  • Peak Period 8s
  • Average Period 7s
  • Wind
    7mph, 11mph gusts
  • Sea Temp 68°f
  • Air Temp 65°f
  • Sea Pressure 1012.5mb
  • Tanner Bank - 121nm West Of San Diego, Ca
  • Tanner Bank - 121nm West Of San Diego, Ca

More Historic Weather Station data

Upgrade to MSW Pro to gain access to the past 30 days of data for over 8000 Wavebouys and Weather Stations around the globe.

Join Pro

Comparision Forecast

View Surf forecast
   
Wed 08/20 3:50am 4.5ft 8s 7s 7 11 mph 1012.5mb 68f 65f
2:50am 4.5ft 9s 7s 9 13 mph 1012.4mb 68f 65f
1:50am 4.5ft 9s 6s 9 11 mph 1012.5mb 68f 65f
12:50am 5ft 8s 6s 9 11 mph 1012.9mb 68f 65f
Tue 08/19 11:50pm 5ft 8s 6s 11 13 mph 1012.7mb 68f 65f
10:50pm 5.5ft 8s 6s 13 16 mph 1012.3mb 68f 65f
9:50pm 5.5ft 8s 6s 16 20 mph 1012.2mb 68f 65f
8:50pm 5.5ft 8s 6s 13 18 mph 1011.7mb 68f 65f
7:50pm 5ft 15s 6s 13 18 mph 1011.4mb 68f 65f
6:50pm 5ft 8s 7s 13 18 mph 1010.9mb 68f 65f
5:50pm 5ft 9s 7s 13 18 mph 1011.2mb 68f 66f
4:50pm 5ft 9s 7s 11 13 mph 1011.4mb 69f 66f
3:50pm 5.5ft 11s 7s 11 13 mph 1011.8mb 69f 65f
2:50pm 5ft 15s 7s 11 13 mph 1012.2mb 68f 65f
1:50pm 5ft 10s 7s 9 11 mph 1012.8mb 68f 65f
12:50pm 5ft 8s 7s 9 11 mph 1013mb 68f 65f
11:50am 5ft 8s 7s 9 13 mph 1013.2mb 68f 65f
10:50am 5ft 10s 6s 11 13 mph 1013.3mb 68f 65f
9:50am 5ft 11s 6s 9 11 mph 1013mb 68f 64f
8:50am 5ft 7s 6s 11 13 mph 1012.7mb 68f 64f
7:50am 5ft 10s 6s 13 18 mph 1012.1mb 68f 64f
6:50am 5ft 7s 6s 9 13 mph 1012.1mb 68f 64f
5:50am 5.5ft 6s 6s 11 16 mph 1011.7mb 68f 64f
4:50am 5ft 7s 6s 11 16 mph 1011.6mb 69f 64f
3:50am 5.5ft 7s 6s 9 13 mph 1011.8mb 69f 64f
2:50am 5.5ft 6s 6s 11 13 mph 1011.8mb 69f 64f
1:50am 6ft 11s 6s 11 16 mph 1011.7mb 69f 64f
12:50am 6ft 6s 6s 9 13 mph 1012.1mb 69f 64f
Mon 08/18 11:50pm 6ft 11s 6s 13 18 mph 1011.8mb 69f 64f
10:50pm 6ft 11s 6s 18 20 mph 1011.6mb 69f 65f
9:50pm 6ft 7s 6s 18 22 mph 1011.5mb 69f 65f
8:50pm  -   -   -  18 22 mph 1011.1mb 69f 65f
7:50pm 6ft 7s 6s 18 22 mph 1010.4mb 69f 65f
6:50pm 6.5ft 7s 6s 18 22 mph 1010.3mb 69f 65f
5:50pm 6ft 8s 6s 18 25 mph 1010.2mb 69f 66f
4:50pm 6ft 8s 6s 20 25 mph 1010.1mb 69f 65f
3:50pm 6.5ft 8s 6s 20 25 mph 1010.4mb 69f 66f
2:50pm 6ft 8s 6s 18 22 mph 1011.2mb 69f 65f
1:50pm 7ft 8s 6s 20 22 mph 1011.4mb 69f 65f
12:50pm 7ft 8s 6s 20 25 mph 1011.6mb 68f 65f
11:50am 6.5ft 7s 6s 18 22 mph 1012.1mb 68f 65f
10:50am 7ft 8s 6s 13 18 mph 1013.2mb 68f 64f
9:50am 7ft 8s 6s 16 20 mph 1012.7mb 68f 64f
8:50am 7.5ft 7s 6s 16 18 mph 1012.9mb 68f 64f
7:50am 8ft 8s 6s 18 22 mph 1012.5mb 68f 64f
6:50am  -   -   -  18 22 mph 1011.7mb 68f 64f
5:50am 8ft 7s 6s 20 27 mph 1011.5mb 68f 64f
4:50am 8ft 7s 6s 20 22 mph 1011.6mb 68f 65f
3:50am 7ft 7s 6s 20 25 mph 1011.9mb 68f 64f
2:50am 7ft 7s 6s 20 25 mph 1011.9mb 68f 64f
1:50am 7ft 7s 6s 18 22 mph 1012.5mb 68f 64f
12:50am 6.5ft 7s 6s 20 25 mph 1012.5mb 68f 65f
Sun 08/17 11:50pm 6.5ft 6s 6s 20 25 mph 1013mb 68f 64f
10:50pm 6ft 14s 6s 20 27 mph 1013mb 68f 64f
9:50pm 6ft 11s 6s 20 25 mph 1013mb 68f 64f
8:50pm 5.5ft 12s 6s 18 22 mph 1012.6mb 68f 65f
7:50pm 6ft 12s 6s 20 25 mph 1012.2mb 68f 65f
6:50pm 6.5ft 12s 6s 20 25 mph 1012.1mb 68f 65f
5:50pm 6ft 13s 6s 20 22 mph 1012.5mb 68f 65f
4:50pm 6ft 13s 6s 18 22 mph 1013.1mb 68f 66f
3:50pm 6ft 6s 6s 18 20 mph 1013.7mb 68f 65f
2:50pm 6ft 13s 6s 16 20 mph 1014.7mb 68f 65f
1:50pm 6ft 12s 6s 16 20 mph 1015.2mb 68f 65f
12:50pm 6.5ft 13s 6s 18 20 mph 1015.4mb 68f 65f
11:50am 6ft 14s 6s 18 20 mph 1015.7mb 68f 65f
10:50am 6ft 13s 6s 18 20 mph 1016mb 68f 65f
9:50am 6ft 13s 6s 18 20 mph 1015.8mb 68f 65f
8:50am 5.5ft 14s 6s 20 25 mph 1015.5mb 68f 65f
7:50am 6ft 13s 6s 18 20 mph 1015.7mb 68f 65f
6:50am 6ft 13s 6s 18 22 mph 1015.5mb 68f 65f
5:50am 5.5ft 6s 6s 18 22 mph 1015mb 67f 65f
4:50am 5.5ft 15s 6s 18 20 mph 1014.8mb 67f 65f
3:50am 5.5ft 14s 6s 18 20 mph 1014.7mb 68f 65f
2:50am  -   -   -  16 18 mph 1014.9mb 68f 65f
1:50am 5ft 14s 6s 16 18 mph 1015.1mb 68f 65f
12:50am 5.5ft 13s 6s 16 18 mph 1015.3mb 68f 66f
Sat 08/16 11:50pm 5.5ft 14s 6s 16 18 mph 1015.2mb 68f 66f
10:50pm 5ft 14s 6s 16 20 mph 1015.1mb 68f 66f
9:50pm 5ft 14s 6s 18 20 mph 1015.3mb 68f 66f
8:50pm 5ft 15s 6s 18 20 mph 1014.6mb 68f 66f
7:50pm 5.5ft 14s 6s 18 20 mph 1014.3mb 68f 66f
6:50pm 5ft 16s 6s 18 20 mph 1014.2mb 69f 66f
5:50pm 5ft 16s 6s 18 22 mph 1014.4mb 69f 66f
4:50pm 5ft 14s 6s 18 20 mph 1015mb 69f 66f
3:50pm 4.5ft 14s 6s 16 18 mph 1015.6mb 69f 66f
2:50pm 4.5ft 12s 6s 16 18 mph 1016.4mb 69f 66f
1:50pm 5ft 14s 7s 13 16 mph 1017mb 68f 66f
12:50pm 4.5ft 14s 6s 13 16 mph 1017.3mb 68f 66f
11:50am 4.5ft 14s 7s 13 16 mph 1017.3mb 68f 65f